createdAt,value
2018-12-04T00:03:37.701Z,99017.91
2018-12-04T00:08:41.652Z,99015.19
2018-12-04T00:13:44.991Z,99018.04
2018-12-04T00:18:48.353Z,99023.56
2018-12-04T00:23:51.903Z,99027.66
2018-12-04T00:28:55.344Z,99042.78
2018-12-04T00:33:58.937Z,99038.36
2018-12-04T00:39:02.970Z,99053.53
2018-12-04T00:44:07.477Z,99049.90
2018-12-04T00:49:11.019Z,99058.05
2018-12-04T00:54:14.415Z,99063.11
2018-12-04T00:59:17.829Z,99055.97
2018-12-04T01:04:21.506Z,99067.34
2018-12-04T01:10:01.782Z,99090.52
2018-12-04T01:15:05.185Z,99080.51
2018-12-04T01:20:07.491Z,99092.02
2018-12-04T01:25:09.843Z,99088.63
2018-12-04T01:30:13.378Z,99102.39
2018-12-04T01:35:15.674Z,99095.95
2018-12-04T01:40:17.947Z,99098.06
2018-12-04T01:45:20.127Z,99106.28
2018-12-04T01:50:22.398Z,99100.78
2018-12-04T01:55:25.706Z,99107.07
2018-12-04T02:00:28.221Z,99114.30
2018-12-04T02:05:30.283Z,99121.58
2018-12-04T02:10:32.795Z,99129.23
2018-12-04T02:15:35.179Z,99145.59
2018-12-04T02:20:37.335Z,99144.89
2018-12-04T02:25:39.426Z,99142.72
2018-12-04T02:30:41.733Z,99147.27
2018-12-04T02:35:44.230Z,99162.09
2018-12-04T02:40:46.362Z,99169.84
2018-12-04T02:45:49.049Z,99182.28
2018-12-04T02:50:51.317Z,99182.53
2018-12-04T02:55:54.307Z,99186.25
2018-12-04T03:00:56.838Z,99262.20
2018-12-04T03:05:58.935Z,99273.66
2018-12-04T03:11:01.447Z,99278.41
2018-12-04T03:16:03.729Z,99284.50
2018-12-04T03:21:06.029Z,99299.59
2018-12-04T03:26:08.247Z,99326.08
2018-12-04T03:31:11.376Z,99342.73
2018-12-04T03:36:14.414Z,99362.20
2018-12-04T03:41:16.791Z,99374.14
2018-12-04T03:46:18.974Z,99390.39
2018-12-04T03:51:21.295Z,99402.95
2018-12-04T03:56:23.534Z,99426.28
2018-12-04T04:01:25.599Z,99449.88
2018-12-04T04:06:27.681Z,99471.63
2018-12-04T04:11:29.978Z,99478.00
2018-12-04T04:16:32.162Z,99483.56
2018-12-04T04:21:35.069Z,99504.70
2018-12-04T04:26:37.310Z,99512.73
2018-12-04T04:31:39.856Z,99525.15
2018-12-04T04:36:42.523Z,99520.47
2018-12-04T04:41:45.133Z,99538.52
2018-12-04T04:46:47.212Z,99565.41
2018-12-04T04:51:49.387Z,99574.92
2018-12-04T04:56:53.792Z,99588.13
2018-12-04T05:01:55.914Z,99590.65
2018-12-04T05:06:58.108Z,99613.70
2018-12-04T05:12:00.396Z,99629.38
2018-12-04T05:17:03.869Z,99644.77
2018-12-04T05:22:09.728Z,99663.31
2018-12-04T05:27:13.464Z,99681.86
2018-12-04T05:32:24.018Z,99698.91
2018-12-04T05:37:26.065Z,99711.11
2018-12-04T05:42:28.999Z,99721.45
2018-12-04T05:47:31.740Z,99742.37
2018-12-04T05:52:33.786Z,99753.89
2018-12-04T05:57:37.119Z,99766.76
2018-12-04T06:02:39.266Z,99786.48
2018-12-04T06:07:41.383Z,99801.05
2018-12-04T06:12:43.880Z,99800.68
2018-12-04T06:17:46.185Z,99817.55
2018-12-04T06:22:48.530Z,99831.25
2018-12-04T06:27:50.627Z,99851.61
2018-12-04T06:32:53.147Z,99861.48
2018-12-04T06:37:55.219Z,99877.51
2018-12-04T06:48:06.394Z,99908.74
2018-12-04T06:53:08.894Z,99931.80
2018-12-04T06:58:11.935Z,99950.81
2018-12-04T07:03:14.123Z,99960.98
2018-12-04T07:08:16.339Z,99973.66
2018-12-04T07:13:18.671Z,99993.20
2018-12-04T07:18:21.155Z,100005.21
2018-12-04T07:23:23.219Z,100012.94
2018-12-04T07:28:26.108Z,100030.16
2018-12-04T07:33:28.414Z,100040.45
2018-12-04T07:38:30.631Z,100054.96
2018-12-04T07:43:33.095Z,100074.81
2018-12-04T07:48:35.280Z,100088.81
2018-12-04T07:53:37.486Z,100099.79
2018-12-04T07:58:39.711Z,100113.32
2018-12-04T08:03:41.807Z,100123.71
2018-12-04T08:08:43.970Z,100147.70
2018-12-04T08:13:46.091Z,100165.45
2018-12-04T08:18:48.304Z,100171.39
2018-12-04T08:23:50.504Z,100171.75
2018-12-04T08:28:52.616Z,100186.11
2018-12-04T08:33:54.864Z,100196.17
2018-12-04T08:38:57.154Z,100208.46
2018-12-04T08:43:59.236Z,100221.38
2018-12-04T08:49:01.299Z,100234.48
2018-12-04T08:54:03.580Z,100251.91
2018-12-04T08:59:05.872Z,100276.47
2018-12-04T09:04:08.174Z,100263.03
2018-12-04T09:09:11.283Z,100272.55
2018-12-04T09:14:13.703Z,100282.17
2018-12-04T09:19:16.067Z,100305.26
2018-12-04T09:24:18.238Z,100314.02
2018-12-04T09:29:20.588Z,100315.83
2018-12-04T09:34:22.785Z,100332.02
2018-12-04T09:39:25.247Z,100341.92
2018-12-04T09:44:34.770Z,100351.02
2018-12-04T09:49:37.194Z,100365.08
2018-12-04T09:54:39.277Z,100364.64
2018-12-04T09:59:41.422Z,100360.16
2018-12-04T10:04:43.722Z,100371.33
2018-12-04T10:09:45.800Z,100378.84
2018-12-04T10:14:47.898Z,100369.45
2018-12-04T10:19:50.231Z,100379.34
2018-12-04T10:24:52.693Z,100379.89
2018-12-04T10:29:54.897Z,100391.62
2018-12-04T10:34:57.339Z,100400.76
2018-12-04T10:39:59.451Z,100403.71
2018-12-04T10:45:01.618Z,100425.00
2018-12-04T10:50:06.258Z,100426.94
2018-12-04T10:55:08.672Z,100434.05
2018-12-04T11:00:15.631Z,100443.41
2018-12-04T11:05:17.989Z,100453.36
2018-12-04T11:10:20.174Z,100442.73
2018-12-04T11:15:22.416Z,100450.48
2018-12-04T11:20:24.667Z,100468.23
2018-12-04T11:25:26.883Z,100471.95
2018-12-04T11:30:29.022Z,100492.59
2018-12-04T11:35:31.542Z,100492.93
2018-12-04T11:40:33.770Z,100493.47
2018-12-04T11:45:35.943Z,100503.95
2018-12-04T11:50:38.058Z,100510.80
2018-12-04T11:55:40.986Z,100517.64
2018-12-04T12:00:43.370Z,100525.31
2018-12-04T12:05:45.543Z,100536.97
2018-12-04T12:10:49.776Z,100532.65
2018-12-04T12:15:52.063Z,100541.69
2018-12-04T12:20:54.226Z,100545.06
2018-12-04T12:25:56.560Z,100554.55
2018-12-04T12:30:59.019Z,100563.47
2018-12-04T12:36:01.352Z,100568.52
2018-12-04T12:41:03.679Z,100583.34
2018-12-04T12:46:05.802Z,100587.57
2018-12-04T12:51:09.523Z,100611.41
2018-12-04T12:56:12.066Z,100602.32
2018-12-04T13:01:14.310Z,100602.28
2018-12-04T13:06:16.583Z,100614.83
2018-12-04T13:11:18.778Z,100624.80
2018-12-04T13:16:26.021Z,100626.34
2018-12-04T13:21:28.090Z,100633.29
2018-12-04T13:26:30.284Z,100653.95
2018-12-04T13:31:33.347Z,100649.12
2018-12-04T13:36:35.528Z,100659.88
2018-12-04T13:41:37.779Z,100665.52
2018-12-04T13:46:39.831Z,100670.45
2018-12-04T13:51:42.003Z,100679.92
2018-12-04T13:56:44.212Z,100699.42
2018-12-04T14:01:46.418Z,100720.45
2018-12-04T14:06:49.104Z,100726.98
2018-12-04T14:11:51.376Z,100741.14
2018-12-04T14:17:00.529Z,100751.45
2018-12-04T14:22:02.811Z,100767.16
2018-12-04T14:27:05.037Z,100768.22
2018-12-04T14:32:07.307Z,100783.75
2018-12-04T14:37:09.529Z,100794.95
2018-12-04T14:42:12.519Z,100809.81
2018-12-04T14:47:14.717Z,100812.23
2018-12-04T14:52:16.945Z,100826.44
2018-12-04T14:57:19.431Z,100834.02
2018-12-04T15:02:21.944Z,100842.50
2018-12-04T15:07:24.277Z,100852.82
2018-12-04T15:12:26.682Z,100866.20
2018-12-04T15:17:28.883Z,100877.23
2018-12-04T15:22:30.963Z,100885.65
2018-12-04T15:27:33.311Z,100894.97
2018-12-04T15:32:35.685Z,100899.59
2018-12-04T15:37:44.899Z,100915.47
2018-12-04T15:42:47.111Z,100925.75
2018-12-04T15:47:49.407Z,100937.22
2018-12-04T15:52:51.482Z,100936.72
2018-12-04T15:57:53.786Z,100953.52
2018-12-04T16:02:56.064Z,100963.89
2018-12-04T16:07:58.226Z,100973.79
2018-12-04T16:13:00.438Z,100983.11
2018-12-04T16:18:02.670Z,100996.77
2018-12-04T16:23:04.862Z,101006.81
2018-12-04T16:28:06.910Z,101019.38
2018-12-04T16:33:09.011Z,101024.38
2018-12-04T16:38:11.196Z,101033.74
2018-12-04T16:43:13.863Z,101041.05
2018-12-04T16:48:17.295Z,101046.81
2018-12-04T16:53:19.360Z,101053.65
2018-12-04T16:58:21.414Z,101066.39
2018-12-04T17:03:23.522Z,101073.66
2018-12-04T17:08:25.983Z,101078.20
2018-12-04T17:13:28.044Z,101085.02
2018-12-04T17:18:37.452Z,101092.23
2018-12-04T17:23:34.338Z,101092.45
2018-12-04T17:28:36.514Z,101110.55
2018-12-04T17:33:38.765Z,101111.97
2018-12-04T17:38:40.887Z,101113.02
2018-12-04T17:43:43.086Z,101116.50
2018-12-04T17:48:45.282Z,101122.24
2018-12-04T17:53:47.456Z,101128.63
2018-12-04T17:58:51.543Z,101136.16
2018-12-04T18:04:00.847Z,101138.10
2018-12-04T18:09:05.867Z,101150.55
2018-12-04T18:14:09.955Z,101149.62
2018-12-04T18:19:12.282Z,101158.75
2018-12-04T18:24:16.420Z,101172.04
2018-12-04T18:29:19.131Z,101180.33
2018-12-04T18:34:22.367Z,101177.75
2018-12-04T18:39:24.425Z,101183.06
2018-12-04T18:44:26.804Z,101185.92
2018-12-04T18:49:29.050Z,101199.20
2018-12-04T18:54:31.358Z,101198.29
2018-12-04T18:59:33.418Z,101210.25
2018-12-04T19:04:35.587Z,101214.70
2018-12-04T19:09:37.650Z,101222.38
2018-12-04T19:14:39.880Z,101222.59
2018-12-04T19:19:41.938Z,101226.67
2018-12-04T19:24:44.130Z,101223.27
2018-12-04T19:29:46.522Z,101244.33
2018-12-04T19:34:49.175Z,101249.34
2018-12-04T19:39:51.469Z,101244.05
2018-12-04T19:44:53.699Z,101246.14
2018-12-04T19:49:55.943Z,101255.62
2018-12-04T19:54:58.337Z,101255.13
2018-12-04T20:00:00.736Z,101257.23
2018-12-04T20:05:03.248Z,101263.02
2018-12-04T20:10:06.270Z,101280.55
2018-12-04T20:15:09.020Z,101290.48
2018-12-04T20:20:11.088Z,101295.98
2018-12-04T20:25:13.293Z,101304.55
2018-12-04T20:30:15.604Z,101318.66
2018-12-04T20:35:17.698Z,101327.36
2018-12-04T20:40:23.624Z,101340.49
2018-12-04T20:45:26.050Z,101351.20
2018-12-04T20:50:29.266Z,101359.23
2018-12-04T20:55:31.438Z,101372.23
2018-12-04T21:00:33.847Z,101373.73
2018-12-04T21:05:36.196Z,101384.91
2018-12-04T21:10:38.387Z,101383.30
2018-12-04T21:15:40.567Z,101381.57
2018-12-04T21:20:43.063Z,101383.21
2018-12-04T21:25:45.283Z,101382.78
2018-12-04T21:30:53.438Z,101400.95
2018-12-04T21:36:08.585Z,101398.84
2018-12-04T21:41:15.397Z,101412.19
2018-12-04T21:48:29.233Z,101405.52
2018-12-04T21:53:31.403Z,101424.77
2018-12-04T21:58:33.554Z,101432.04
2018-12-04T22:03:36.130Z,101437.54
2018-12-04T22:08:38.336Z,101443.47
2018-12-04T22:13:40.581Z,101452.00
2018-12-04T22:18:42.940Z,101460.31
2018-12-04T22:23:45.215Z,101460.31
2018-12-04T22:28:47.645Z,101463.11
2018-12-04T22:33:49.842Z,101464.86
2018-12-04T22:38:52.155Z,101470.48
2018-12-04T22:43:54.414Z,101473.06
2018-12-04T22:48:56.877Z,101471.52
2018-12-04T22:53:59.023Z,101467.48
2018-12-04T22:59:01.322Z,101463.33
2018-12-04T23:04:03.973Z,101474.31
2018-12-04T23:09:09.577Z,101477.98
2018-12-04T23:14:13.071Z,101482.58
2018-12-04T23:19:15.374Z,101475.11
2018-12-04T23:24:17.504Z,101471.83
2018-12-04T23:29:19.882Z,101478.98
2018-12-04T23:34:22.334Z,101476.78
2018-12-04T23:39:24.479Z,101482.39
2018-12-04T23:44:26.815Z,101487.41
2018-12-04T23:49:29.588Z,101488.95
2018-12-04T23:54:31.918Z,101493.00
2018-12-04T23:59:34.369Z,101493.86
